createdAt,value
2023-01-19T00:01:45.889Z,-3.35
2023-01-19T00:04:12.313Z,-3.36
2023-01-19T00:06:38.668Z,-3.37
2023-01-19T00:09:05.053Z,-3.35
2023-01-19T00:11:31.428Z,-3.38
2023-01-19T00:13:58.829Z,-3.46
2023-01-19T00:16:25.234Z,-3.51
2023-01-19T00:18:52.312Z,-3.52
2023-01-19T00:21:19.182Z,-3.50
2023-01-19T00:23:48.297Z,-3.54
2023-01-19T00:26:16.393Z,-3.66
2023-01-19T00:28:43.654Z,-3.77
2023-01-19T00:31:10.269Z,-3.79
2023-01-19T00:33:37.433Z,-3.87
2023-01-19T00:36:04.411Z,-3.94
2023-01-19T00:38:30.785Z,-3.98
2023-01-19T00:40:57.197Z,-4.01
2023-01-19T00:43:23.637Z,-4.05
2023-01-19T00:45:50.172Z,-4.08
2023-01-19T00:48:16.633Z,-4.15
2023-01-19T00:50:42.955Z,-4.21
2023-01-19T00:53:12.344Z,-4.26
2023-01-19T00:55:38.681Z,-4.30
2023-01-19T00:58:06.603Z,-4.29
2023-01-19T01:00:32.949Z,-4.31
2023-01-19T01:02:59.811Z,-4.34
2023-01-19T01:05:26.391Z,-4.38
2023-01-19T01:07:52.752Z,-4.47
2023-01-19T01:10:23.714Z,-4.49
2023-01-19T01:13:19.840Z,-4.54
2023-01-19T01:15:37.048Z,-4.60
2023-01-19T01:18:03.440Z,-4.66
2023-01-19T01:20:31.086Z,-4.74
2023-01-19T01:22:57.564Z,-4.82
2023-01-19T01:25:25.155Z,-4.87
2023-01-19T01:27:52.093Z,-4.93
2023-01-19T01:30:18.630Z,-4.99
2023-01-19T01:32:44.963Z,-5.08
2023-01-19T01:35:11.775Z,-5.20
2023-01-19T01:37:38.483Z,-5.28
2023-01-19T01:40:06.040Z,-5.30
2023-01-19T01:42:33.186Z,-5.28
2023-01-19T01:45:00.761Z,-5.23
2023-01-19T01:47:42.643Z,-5.15
2023-01-19T01:50:17.847Z,-5.11
2023-01-19T01:53:06.458Z,-5.12
2023-01-19T01:55:35.893Z,-5.22
2023-01-19T01:58:03.838Z,-5.21
2023-01-19T02:00:50.939Z,-5.18
2023-01-19T02:07:05.568Z,-5.12
2023-01-19T02:09:51.690Z,-5.07
2023-01-19T02:12:36.503Z,-5.08
2023-01-19T02:15:03.007Z,-5.02
2023-01-19T02:17:29.366Z,-5.00
2023-01-19T02:19:56.221Z,-4.99
2023-01-19T02:22:22.594Z,-4.97
2023-01-19T02:24:50.056Z,-4.98
2023-01-19T02:27:16.957Z,-4.98
2023-01-19T02:29:43.415Z,-5.13
2023-01-19T02:32:09.752Z,-5.21
2023-01-19T02:34:36.124Z,-5.19
2023-01-19T02:37:12.926Z,-5.22
2023-01-19T02:39:42.969Z,-5.25
2023-01-19T02:42:12.300Z,-5.29
2023-01-19T02:44:39.573Z,-5.33
2023-01-19T02:47:05.996Z,-5.38
2023-01-19T02:49:32.309Z,-5.36
2023-01-19T02:52:00.646Z,-5.31
2023-01-19T02:54:45.867Z,-5.35
2023-01-19T02:57:32.476Z,-5.52
2023-01-19T03:00:10.137Z,-5.62
2023-01-19T03:02:55.140Z,-5.69
2023-01-19T03:05:49.556Z,-5.75
2023-01-19T03:08:26.917Z,-5.79
2023-01-19T03:11:07.459Z,-5.83
2023-01-19T03:13:45.998Z,-5.81
2023-01-19T03:16:18.520Z,-5.75
2023-01-19T03:18:47.497Z,-5.78
2023-01-19T03:21:15.087Z,-5.79
2023-01-19T03:23:42.964Z,-5.82
2023-01-19T03:26:11.420Z,-5.90
2023-01-19T03:28:39.084Z,-5.95
2023-01-19T03:31:11.213Z,-5.99
2023-01-19T03:33:38.921Z,-6.05
2023-01-19T03:36:08.706Z,-6.11
2023-01-19T03:38:37.136Z,-6.17
2023-01-19T03:41:07.700Z,-6.19
2023-01-19T03:43:36.054Z,-6.21
2023-01-19T03:46:03.610Z,-6.13
2023-01-19T03:48:30.662Z,-6.04
2023-01-19T03:50:57.040Z,-6.05
2023-01-19T03:53:23.369Z,-6.06
2023-01-19T03:55:50.698Z,-6.07
2023-01-19T03:58:17.379Z,-6.08
2023-01-19T04:00:43.710Z,-5.93
2023-01-19T04:03:13.030Z,-5.98
2023-01-19T04:05:39.707Z,-5.93
2023-01-19T04:08:06.173Z,-5.94
2023-01-19T04:10:32.487Z,-5.98
2023-01-19T04:12:59.595Z,-5.89
2023-01-19T04:15:26.398Z,-5.88
2023-01-19T04:17:59.941Z,-5.89
2023-01-19T04:20:28.170Z,-5.87
2023-01-19T04:22:55.135Z,-5.88
2023-01-19T04:25:21.685Z,-5.82
2023-01-19T04:27:51.187Z,-5.78
2023-01-19T04:30:17.696Z,-5.77
2023-01-19T04:32:44.283Z,-5.68
2023-01-19T04:35:10.744Z,-5.59
2023-01-19T04:37:37.225Z,-5.62
2023-01-19T04:40:03.697Z,-5.67
2023-01-19T04:42:30.114Z,-5.66
2023-01-19T04:44:56.450Z,-5.73
2023-01-19T04:47:22.779Z,-5.75
2023-01-19T04:49:49.118Z,-5.74
2023-01-19T04:52:15.450Z,-5.73
2023-01-19T04:54:41.800Z,-5.71
2023-01-19T04:57:08.337Z,-5.76
2023-01-19T04:59:34.667Z,-5.75
2023-01-19T05:02:01.042Z,-5.71
2023-01-19T05:04:27.520Z,-5.68
2023-01-19T05:06:54.323Z,-5.67
2023-01-19T05:09:20.637Z,-5.70
2023-01-19T05:11:47.141Z,-5.75
2023-01-19T05:14:13.479Z,-5.75
2023-01-19T05:16:39.816Z,-5.76
2023-01-19T05:19:06.182Z,-5.78
2023-01-19T05:21:32.499Z,-5.82
2023-01-19T05:23:59.080Z,-5.85
2023-01-19T05:26:25.412Z,-5.90
2023-01-19T05:28:51.725Z,-5.92
2023-01-19T05:31:19.599Z,-5.90
2023-01-19T05:33:46.024Z,-5.96
2023-01-19T05:36:12.391Z,-5.98
2023-01-19T05:38:38.884Z,-6.01
2023-01-19T05:41:05.277Z,-6.06
2023-01-19T05:43:31.632Z,-6.07
2023-01-19T05:45:57.955Z,-6.12
2023-01-19T05:48:24.266Z,-6.15
2023-01-19T05:50:50.580Z,-6.14
2023-01-19T05:53:17.175Z,-6.20
2023-01-19T05:55:43.529Z,-6.20
2023-01-19T05:58:09.886Z,-6.23
2023-01-19T06:00:36.204Z,-6.30
2023-01-19T06:03:03.224Z,-6.36
2023-01-19T06:05:29.934Z,-6.37
2023-01-19T06:07:58.854Z,-6.38
2023-01-19T06:10:25.279Z,-6.41
2023-01-19T06:12:52.445Z,-6.38
2023-01-19T06:15:18.790Z,-6.39
2023-01-19T06:17:45.148Z,-6.45
2023-01-19T06:20:14.042Z,-6.47
2023-01-19T06:22:40.415Z,-6.54
2023-01-19T06:25:06.907Z,-6.58
2023-01-19T06:27:33.240Z,-6.59
2023-01-19T06:29:59.599Z,-6.63
2023-01-19T06:32:25.970Z,-6.62
2023-01-19T06:34:54.089Z,-6.59
2023-01-19T06:37:20.658Z,-6.63
2023-01-19T06:39:46.986Z,-6.64
2023-01-19T06:42:13.406Z,-6.67
2023-01-19T06:44:43.386Z,-6.73
2023-01-19T06:47:15.231Z,-6.74
2023-01-19T06:49:42.449Z,-6.84
2023-01-19T06:52:12.353Z,-6.91
2023-01-19T06:54:38.686Z,-6.99
2023-01-19T06:57:05.130Z,-7.04
2023-01-19T06:59:31.742Z,-7.07
2023-01-19T07:01:59.044Z,-7.11
2023-01-19T07:04:27.032Z,-7.14
2023-01-19T07:06:53.710Z,-7.10
2023-01-19T07:09:20.535Z,-7.10
2023-01-19T07:11:47.399Z,-7.07
2023-01-19T07:14:14.168Z,-7.05
2023-01-19T07:16:40.572Z,-7.03
2023-01-19T07:19:07.201Z,-6.97
2023-01-19T07:21:33.712Z,-6.89
2023-01-19T07:24:00.097Z,-6.83
2023-01-19T07:26:28.010Z,-6.76
2023-01-19T07:28:54.433Z,-6.67
2023-01-19T07:31:21.050Z,-6.56
2023-01-19T07:33:47.445Z,-6.52
2023-01-19T07:36:13.907Z,-6.44
2023-01-19T07:38:40.263Z,-6.35
2023-01-19T07:41:07.650Z,-6.33
2023-01-19T07:43:34.002Z,-6.28
2023-01-19T07:46:01.673Z,-6.19
2023-01-19T07:48:28.619Z,-5.97
2023-01-19T07:50:59.842Z,-5.86
2023-01-19T07:53:26.187Z,-5.79
2023-01-19T07:55:56.523Z,-5.67
2023-01-19T07:58:26.544Z,-5.49
2023-01-19T08:00:52.946Z,-5.45
2023-01-19T08:03:19.320Z,-5.41
2023-01-19T08:05:49.741Z,-5.30
2023-01-19T08:08:16.098Z,-5.23
2023-01-19T08:10:42.412Z,-5.16
2023-01-19T08:13:08.807Z,-5.12
2023-01-19T08:15:35.165Z,-5.05
2023-01-19T08:18:04.899Z,-4.96
2023-01-19T08:20:32.114Z,-4.90
2023-01-19T08:23:02.863Z,-4.80
2023-01-19T08:25:33.850Z,-4.71
2023-01-19T08:28:00.588Z,-4.68
2023-01-19T08:30:27.298Z,-4.59
2023-01-19T08:32:54.744Z,-4.48
2023-01-19T08:35:22.650Z,-4.39
2023-01-19T08:37:49.310Z,-4.36
2023-01-19T08:40:15.687Z,-4.13
2023-01-19T08:42:42.085Z,-4.11
2023-01-19T08:45:09.285Z,-3.98
2023-01-19T08:47:35.658Z,-3.98
2023-01-19T08:50:02.173Z,-3.91
2023-01-19T08:52:29.465Z,-3.84
2023-01-19T08:54:55.779Z,-3.71
2023-01-19T08:57:22.124Z,-3.67
2023-01-19T08:59:48.463Z,-3.55
2023-01-19T09:02:14.887Z,-3.49
2023-01-19T09:04:41.557Z,-3.38
2023-01-19T09:07:07.975Z,-3.20
2023-01-19T09:09:37.773Z,-3.02
2023-01-19T09:12:04.320Z,-2.87
2023-01-19T09:14:30.707Z,-2.64
2023-01-19T09:16:57.058Z,-2.35
2023-01-19T09:19:23.470Z,-2.00
2023-01-19T09:21:50.819Z,-1.80
2023-01-19T09:24:17.163Z,-1.75
2023-01-19T09:26:43.506Z,-1.65
2023-01-19T09:29:09.835Z,-1.47
2023-01-19T09:31:36.941Z,-1.38
2023-01-19T09:34:03.268Z,-1.32
2023-01-19T09:36:30.311Z,-1.04
2023-01-19T09:38:56.701Z,-0.73
2023-01-19T09:41:25.099Z,-0.35
2023-01-19T09:43:54.578Z,-0.22
2023-01-19T09:46:24.480Z,0.06
2023-01-19T09:48:58.553Z,-0.04
2023-01-19T09:51:29.752Z,0.34
2023-01-19T09:54:02.169Z,0.64
2023-01-19T09:56:29.927Z,0.70
2023-01-19T09:58:56.280Z,0.74
2023-01-19T10:01:35.535Z,0.80
2023-01-19T10:04:20.988Z,0.70
2023-01-19T10:06:48.691Z,0.35
2023-01-19T10:09:24.040Z,0.01
2023-01-19T10:12:17.883Z,-0.09
2023-01-19T10:14:56.745Z,-0.32
2023-01-19T10:17:35.151Z,-0.36
2023-01-19T10:20:02.223Z,-0.43
2023-01-19T10:22:28.881Z,-0.48
2023-01-19T10:25:07.930Z,-0.43
2023-01-19T10:27:35.707Z,-0.35
2023-01-19T10:30:02.131Z,-0.26
2023-01-19T10:32:34.270Z,-0.10
2023-01-19T10:35:01.042Z,-0.19
2023-01-19T10:37:27.486Z,-0.20
2023-01-19T10:39:55.728Z,-0.11
2023-01-19T10:42:22.203Z,-0.04
2023-01-19T10:44:49.277Z,0.02
2023-01-19T10:47:17.237Z,0.04
2023-01-19T10:49:44.612Z,0.08
2023-01-19T10:52:41.281Z,0.13
2023-01-19T10:55:08.067Z,0.15
2023-01-19T10:57:39.059Z,0.27
2023-01-19T11:00:06.430Z,0.20
2023-01-19T11:02:33.403Z,0.10
2023-01-19T11:05:00.996Z,0.20
2023-01-19T11:07:32.598Z,0.24
2023-01-19T11:10:21.606Z,0.26
2023-01-19T11:12:47.939Z,0.28
2023-01-19T11:15:31.805Z,0.29
2023-01-19T11:17:58.425Z,0.40
2023-01-19T11:20:29.899Z,0.45
2023-01-19T11:23:07.219Z,0.32
2023-01-19T11:25:35.511Z,0.32
2023-01-19T11:28:03.155Z,0.26
2023-01-19T11:30:30.307Z,0.30
2023-01-19T11:32:56.747Z,0.34
2023-01-19T11:35:39.950Z,0.45
2023-01-19T11:38:12.394Z,0.56
2023-01-19T11:40:39.215Z,0.60
2023-01-19T11:43:05.650Z,0.63
2023-01-19T11:45:33.053Z,0.52
2023-01-19T11:48:03.022Z,0.52
2023-01-19T11:50:41.266Z,0.58
2023-01-19T11:53:15.178Z,0.60
2023-01-19T11:55:51.288Z,0.72
2023-01-19T11:58:18.514Z,0.71
2023-01-19T12:00:48.457Z,0.68
2023-01-19T12:03:30.588Z,0.76
2023-01-19T12:06:00.331Z,0.71
2023-01-19T12:08:33.173Z,0.75
2023-01-19T12:11:00.770Z,0.75
2023-01-19T12:13:28.008Z,0.79
2023-01-19T12:15:57.953Z,0.87
2023-01-19T12:18:28.062Z,0.93
2023-01-19T12:20:55.824Z,0.91
2023-01-19T12:23:31.425Z,0.96
2023-01-19T12:26:03.039Z,1.15
2023-01-19T12:28:40.360Z,1.11
2023-01-19T12:31:08.073Z,1.15
2023-01-19T12:33:38.490Z,1.19
2023-01-19T12:36:06.718Z,1.26
2023-01-19T12:38:52.846Z,1.32
2023-01-19T12:41:33.270Z,1.38
2023-01-19T12:44:11.993Z,1.46
2023-01-19T12:46:41.061Z,1.50
2023-01-19T12:49:27.421Z,1.53
2023-01-19T12:51:56.022Z,1.52
2023-01-19T12:54:31.558Z,1.49
2023-01-19T12:57:04.743Z,1.59
2023-01-19T12:59:31.291Z,1.57
2023-01-19T13:02:16.283Z,1.63
2023-01-19T13:05:02.623Z,1.63
2023-01-19T13:07:28.966Z,1.58
2023-01-19T13:09:55.292Z,1.54
2023-01-19T13:12:22.785Z,1.51
2023-01-19T13:14:50.769Z,1.55
2023-01-19T13:17:28.040Z,1.64
2023-01-19T13:20:00.602Z,1.70
2023-01-19T13:22:45.871Z,1.64
2023-01-19T13:25:13.468Z,1.72
2023-01-19T13:27:40.738Z,1.53
2023-01-19T13:30:16.094Z,1.49
2023-01-19T13:32:42.685Z,1.33
2023-01-19T13:35:15.360Z,1.22
2023-01-19T13:37:43.343Z,1.08
2023-01-19T13:40:30.313Z,1.08
2023-01-19T13:42:56.901Z,0.89
2023-01-19T13:45:33.752Z,0.93
2023-01-19T13:48:02.571Z,0.89
2023-01-19T13:50:30.417Z,0.74
2023-01-19T13:52:58.857Z,0.85
2023-01-19T13:55:26.553Z,0.89
2023-01-19T13:57:54.203Z,0.88
2023-01-19T14:00:22.212Z,0.72
2023-01-19T14:02:57.010Z,0.72
2023-01-19T14:05:23.423Z,0.68
2023-01-19T14:07:59.641Z,0.73
2023-01-19T14:10:26.026Z,0.73
2023-01-19T14:12:59.965Z,0.80
2023-01-19T14:15:26.898Z,0.72
2023-01-19T14:18:09.626Z,0.75
2023-01-19T14:20:39.189Z,0.66
2023-01-19T14:23:06.148Z,0.67
2023-01-19T14:25:33.844Z,0.60
2023-01-19T14:28:18.717Z,0.49
2023-01-19T14:30:59.044Z,0.45
2023-01-19T14:33:42.089Z,0.46
2023-01-19T14:36:11.347Z,0.47
2023-01-19T14:38:54.537Z,0.42
2023-01-19T14:41:44.003Z,0.31
2023-01-19T14:44:11.356Z,0.24
2023-01-19T14:46:38.384Z,0.15
2023-01-19T14:49:06.261Z,0.18
2023-01-19T14:51:32.813Z,0.16
2023-01-19T14:54:01.363Z,0.09
2023-01-19T14:56:29.634Z,0.13
2023-01-19T14:58:59.515Z,0.03
2023-01-19T15:01:28.538Z,0.02
2023-01-19T15:03:58.116Z,-0.09
2023-01-19T15:06:25.336Z,-0.12
2023-01-19T15:08:53.516Z,-0.16
2023-01-19T15:11:25.077Z,-0.15
2023-01-19T15:13:51.700Z,-0.20
2023-01-19T15:16:18.486Z,-0.27
2023-01-19T15:18:44.909Z,-0.35
2023-01-19T15:21:14.130Z,-0.43
2023-01-19T15:23:41.121Z,-0.47
2023-01-19T15:26:07.751Z,-0.47
2023-01-19T15:28:34.177Z,-0.44
2023-01-19T15:31:00.539Z,-0.53
2023-01-19T15:33:30.482Z,-0.57
2023-01-19T15:35:56.821Z,-0.60
2023-01-19T15:38:23.817Z,-0.57
2023-01-19T15:40:51.654Z,-0.61
2023-01-19T15:43:18.327Z,-0.66
2023-01-19T15:45:44.707Z,-0.78
2023-01-19T15:48:11.689Z,-0.78
2023-01-19T15:50:39.954Z,-0.79
2023-01-19T15:53:06.791Z,-0.74
2023-01-19T15:55:33.404Z,-0.79
2023-01-19T15:58:02.551Z,-0.75
2023-01-19T16:00:30.168Z,-0.74
2023-01-19T16:02:56.700Z,-0.74
2023-01-19T16:05:30.546Z,-0.75
2023-01-19T16:08:04.011Z,-0.67
2023-01-19T16:10:30.497Z,-0.64
2023-01-19T16:12:56.902Z,-0.73
2023-01-19T16:15:23.690Z,-0.71
2023-01-19T16:17:50.277Z,-0.68
2023-01-19T16:20:18.380Z,-0.70
2023-01-19T16:22:44.775Z,-0.71
2023-01-19T16:25:11.625Z,-0.72
2023-01-19T16:27:38.114Z,-0.61
2023-01-19T16:30:05.097Z,-0.58
2023-01-19T16:32:35.191Z,-0.54
2023-01-19T16:35:01.545Z,-0.65
2023-01-19T16:37:28.137Z,-0.69
2023-01-19T16:39:54.551Z,-0.65
2023-01-19T16:42:20.933Z,-0.64
2023-01-19T16:44:47.409Z,-0.78
2023-01-19T16:47:13.892Z,-0.88
2023-01-19T16:49:40.268Z,-0.86
2023-01-19T16:52:07.233Z,-0.90
2023-01-19T16:54:33.813Z,-0.94
2023-01-19T16:57:00.327Z,-0.95
2023-01-19T16:59:27.201Z,-0.92
2023-01-19T17:01:54.868Z,-0.96
2023-01-19T17:04:21.963Z,-1.02
2023-01-19T17:06:48.435Z,-1.05
2023-01-19T17:09:14.803Z,-1.20
2023-01-19T17:11:41.268Z,-1.10
2023-01-19T17:14:09.098Z,-1.07
2023-01-19T17:16:35.770Z,-1.07
2023-01-19T17:19:02.908Z,-1.09
2023-01-19T17:21:29.558Z,-1.07
2023-01-19T17:23:56.867Z,-1.07
2023-01-19T17:26:25.712Z,-1.09
2023-01-19T17:28:52.336Z,-1.07
2023-01-19T17:31:20.403Z,-1.06
2023-01-19T17:33:47.881Z,-1.05
2023-01-19T17:36:16.426Z,-1.06
2023-01-19T17:38:43.094Z,-1.06
2023-01-19T17:41:14.068Z,-1.15
2023-01-19T17:43:40.491Z,-1.19
2023-01-19T17:46:07.125Z,-1.17
2023-01-19T17:48:33.502Z,-1.19
2023-01-19T17:51:06.917Z,-1.11
2023-01-19T17:53:34.045Z,-1.06
2023-01-19T17:56:04.542Z,-1.06
2023-01-19T17:58:31.513Z,-1.09
2023-01-19T18:00:58.196Z,-1.11
2023-01-19T18:03:24.660Z,-1.08
2023-01-19T18:05:54.703Z,-1.04
2023-01-19T18:08:21.147Z,-1.01
2023-01-19T18:10:57.475Z,-1.03
2023-01-19T18:13:24.250Z,-1.09
2023-01-19T18:15:50.657Z,-1.01
2023-01-19T18:18:17.544Z,-1.01
2023-01-19T18:20:44.644Z,-1.10
2023-01-19T18:23:11.604Z,-1.11
2023-01-19T18:25:39.736Z,-1.15
2023-01-19T18:28:09.258Z,-1.15
2023-01-19T18:30:36.259Z,-1.18
2023-01-19T18:33:02.864Z,-1.20
2023-01-19T18:35:29.401Z,-1.22
2023-01-19T18:37:56.993Z,-1.24
2023-01-19T18:40:23.963Z,-1.29
2023-01-19T18:42:50.616Z,-1.27
2023-01-19T18:45:17.242Z,-1.28
2023-01-19T18:47:43.594Z,-1.26
2023-01-19T18:50:10.339Z,-1.26
2023-01-19T18:52:36.687Z,-1.24
2023-01-19T18:55:03.100Z,-1.26
2023-01-19T18:57:29.482Z,-1.27
2023-01-19T18:59:55.885Z,-1.26
2023-01-19T19:02:24.323Z,-1.22
2023-01-19T19:04:50.667Z,-1.22
2023-01-19T19:07:17.111Z,-1.18
2023-01-19T19:09:43.587Z,-1.14
2023-01-19T19:12:10.104Z,-1.16
2023-01-19T19:14:36.648Z,-1.20
2023-01-19T19:17:03.064Z,-1.20
2023-01-19T19:19:29.404Z,-1.09
2023-01-19T19:21:56.697Z,-1.10
2023-01-19T19:24:23.128Z,-1.11
2023-01-19T19:26:49.631Z,-1.10
2023-01-19T19:29:16.037Z,-1.06
2023-01-19T19:31:42.947Z,-1.09
2023-01-19T19:34:12.351Z,-1.10
2023-01-19T19:36:39.539Z,-1.06
2023-01-19T19:39:06.283Z,-1.08
2023-01-19T19:41:32.758Z,-1.05
2023-01-19T19:43:59.283Z,-1.05
2023-01-19T19:46:26.379Z,-1.05
2023-01-19T19:48:53.251Z,-1.07
2023-01-19T19:51:24.031Z,-1.07
2023-01-19T19:53:51.844Z,-1.10
2023-01-19T19:56:21.146Z,-1.10
2023-01-19T19:58:47.662Z,-1.11
2023-01-19T20:01:21.298Z,-1.09
2023-01-19T20:03:48.177Z,-1.09
2023-01-19T20:06:15.809Z,-1.05
2023-01-19T20:08:42.158Z,-1.03
2023-01-19T20:11:08.662Z,-1.02
2023-01-19T20:13:35.881Z,-1.03
2023-01-19T20:16:06.585Z,-0.99
2023-01-19T20:18:33.926Z,-0.98
2023-01-19T20:21:00.467Z,-0.98
2023-01-19T20:23:27.185Z,-1.00
2023-01-19T20:25:53.698Z,-0.96
2023-01-19T20:28:20.166Z,-0.94
2023-01-19T20:30:46.652Z,-0.93
2023-01-19T20:33:13.122Z,-0.92
2023-01-19T20:35:39.508Z,-0.92
2023-01-19T20:38:05.979Z,-0.90
2023-01-19T20:40:32.329Z,-0.89
2023-01-19T20:42:58.689Z,-0.87
2023-01-19T20:45:25.996Z,-0.88
2023-01-19T20:47:53.214Z,-0.86
2023-01-19T20:50:19.847Z,-0.84
2023-01-19T20:52:46.249Z,-0.85
2023-01-19T20:55:14.095Z,-0.84
2023-01-19T20:57:40.689Z,-0.80
2023-01-19T21:00:07.322Z,-0.76
2023-01-19T21:02:33.724Z,-0.75
2023-01-19T21:05:00.149Z,-0.76
2023-01-19T21:07:26.621Z,-0.64
2023-01-19T21:09:52.992Z,-0.70
2023-01-19T21:12:21.414Z,-0.70
2023-01-19T21:14:47.895Z,-0.67
2023-01-19T21:17:14.321Z,-0.68
2023-01-19T21:19:40.745Z,-0.70
2023-01-19T21:22:07.138Z,-0.71
2023-01-19T21:24:33.544Z,-0.68
2023-01-19T21:27:00.046Z,-0.68
2023-01-19T21:29:26.534Z,-0.68
2023-01-19T21:31:53.068Z,-0.67
2023-01-19T21:34:19.578Z,-0.65
2023-01-19T21:36:45.947Z,-0.67
2023-01-19T21:39:12.493Z,-0.68
2023-01-19T21:41:40.272Z,-0.69
2023-01-19T21:44:06.718Z,-0.62
2023-01-19T21:46:34.073Z,-0.63
2023-01-19T21:49:01.803Z,-0.66
2023-01-19T21:51:28.923Z,-0.55
2023-01-19T21:54:00.157Z,-0.53
2023-01-19T21:56:30.495Z,-0.50
2023-01-19T21:58:57.314Z,-0.46
2023-01-19T22:01:24.240Z,-0.40
2023-01-19T22:03:54.949Z,-0.44
2023-01-19T22:06:21.937Z,-0.42
2023-01-19T22:08:48.306Z,-0.47
2023-01-19T22:11:16.318Z,-0.50
2023-01-19T22:13:42.773Z,-0.36
2023-01-19T22:16:13.471Z,-0.26
2023-01-19T22:18:41.427Z,-0.26
2023-01-19T22:21:12.342Z,-0.30
2023-01-19T22:23:38.800Z,-0.25
2023-01-19T22:26:05.185Z,-0.30
2023-01-19T22:28:31.987Z,-0.30
2023-01-19T22:31:05.976Z,-0.19
2023-01-19T22:33:32.708Z,-0.26
2023-01-19T22:36:28.349Z,-0.29
2023-01-19T22:39:06.357Z,-0.22
2023-01-19T22:41:32.785Z,-0.10
2023-01-19T22:44:00.666Z,-0.15
2023-01-19T22:46:28.330Z,-0.09
2023-01-19T22:48:55.331Z,-0.24
2023-01-19T22:51:22.225Z,-0.24
2023-01-19T22:53:48.638Z,-0.18
2023-01-19T22:56:16.345Z,-0.17
2023-01-19T22:58:45.766Z,-0.22
2023-01-19T23:01:13.394Z,-0.13
2023-01-19T23:03:40.274Z,-0.13
2023-01-19T23:06:11.130Z,-0.06
2023-01-19T23:08:38.016Z,-0.02
2023-01-19T23:11:11.993Z,-0.02
2023-01-19T23:13:38.699Z,0.04
2023-01-19T23:16:05.432Z,0.05
2023-01-19T23:18:32.206Z,-0.01
2023-01-19T23:21:05.842Z,0.05
2023-01-19T23:23:32.829Z,0.01
2023-01-19T23:26:07.426Z,-0.03
2023-01-19T23:28:34.369Z,-0.01
2023-01-19T23:31:01.374Z,0.08
2023-01-19T23:33:27.847Z,0.08
2023-01-19T23:35:57.121Z,0.03
2023-01-19T23:38:23.567Z,-0.01
2023-01-19T23:40:50.039Z,0.04
2023-01-19T23:43:16.461Z,-0.04
2023-01-19T23:45:42.824Z,-0.10
2023-01-19T23:48:09.265Z,-0.14
2023-01-19T23:50:38.840Z,-0.20
2023-01-19T23:53:05.288Z,-0.22
2023-01-19T23:55:31.735Z,-0.23
2023-01-19T23:57:58.143Z,-0.18
